KBJI

Bemidji Regional Airport

Bemidji, Minnesota, USA
METAR KBJI 230815Z AUTO 00000KT 2 1/2SM -SN OVC019 M07/M08 A3012 RMK AO2 T10721081
Observed Flight Rules
Feb-23 @ 08:15 UTC (9 minutes ago) Instrument Flight Rules
Wind Visibility Clouds Conditions
Calm 2 1/2 miles
  • Overcast at 1,900' AGL
  • Light Snow
Temperatures Readings
Current -7°C / 19°F
Dewpoint -8°C / 18°F
Humidity 93%
Altimeter 30.12" Hg
Pressure 1020 hPa
Elevation 420
METAR KBJI 230815Z AUTO 00000KT 2 1/2SM -SN OVC019 M07/M08 A3012 RMK AO2 T10721081
Observed Flight Rules
Feb-23 @ 08:15 UTC
(9 minutes ago)
IFR
Wind Visibility
Calm 2 1/2 miles
Clouds
  • Overcast at 1,900' AGL
Conditions
  • Light Snow
Temperature Dewpoint
-7°C / 19°F -8°C / 18°F
Humidity Altimeter Pressure
93% 30.12" Hg 1020 hPa